sensor_id;sensor_type;location;lat;lon;timestamp;P1;durP1;ratioP1;P2;durP2;ratioP2
10523;SDS011;5310;48.638;9.060;2023-05-29T00:01:45;1.10;;;1.10;;
10523;SDS011;5310;48.638;9.060;2023-05-29T00:04:11;1.20;;;1.20;;
10523;SDS011;5310;48.638;9.060;2023-05-29T00:06:37;1.30;;;1.30;;
10523;SDS011;5310;48.638;9.060;2023-05-29T00:09:03;1.40;;;1.30;;
10523;SDS011;5310;48.638;9.060;2023-05-29T00:11:29;1.17;;;1.17;;
10523;SDS011;5310;48.638;9.060;2023-05-29T00:13:55;1.20;;;1.20;;
10523;SDS011;5310;48.638;9.060;2023-05-29T00:16:21;1.20;;;1.20;;
10523;SDS011;5310;48.638;9.060;2023-05-29T00:18:48;1.10;;;1.10;;
10523;SDS011;5310;48.638;9.060;2023-05-29T00:21:14;1.13;;;1.13;;
10523;SDS011;5310;48.638;9.060;2023-05-29T00:23:40;1.20;;;1.20;;
10523;SDS011;5310;48.638;9.060;2023-05-29T00:26:06;1.20;;;1.20;;
10523;SDS011;5310;48.638;9.060;2023-05-29T00:28:34;1.27;;;1.27;;
10523;SDS011;5310;48.638;9.060;2023-05-29T00:31:01;1.10;;;1.10;;
10523;SDS011;5310;48.638;9.060;2023-05-29T00:33:27;1.10;;;1.10;;
10523;SDS011;5310;48.638;9.060;2023-05-29T00:35:53;1.17;;;1.17;;
10523;SDS011;5310;48.638;9.060;2023-05-29T00:38:19;1.07;;;1.07;;
10523;SDS011;5310;48.638;9.060;2023-05-29T00:40:45;1.27;;;1.27;;
10523;SDS011;5310;48.638;9.060;2023-05-29T00:43:11;1.10;;;1.10;;
10523;SDS011;5310;48.638;9.060;2023-05-29T00:45:37;1.20;;;1.20;;
10523;SDS011;5310;48.638;9.060;2023-05-29T00:48:03;1.10;;;1.10;;
10523;SDS011;5310;48.638;9.060;2023-05-29T00:50:29;1.20;;;1.20;;
10523;SDS011;5310;48.638;9.060;2023-05-29T00:52:56;1.10;;;1.10;;
10523;SDS011;5310;48.638;9.060;2023-05-29T00:55:22;1.20;;;1.20;;
10523;SDS011;5310;48.638;9.060;2023-05-29T00:57:48;1.20;;;1.20;;
10523;SDS011;5310;48.638;9.060;2023-05-29T01:00:14;1.00;;;1.00;;
10523;SDS011;5310;48.638;9.060;2023-05-29T01:02:41;1.13;;;1.13;;
10523;SDS011;5310;48.638;9.060;2023-05-29T01:05:10;1.03;;;1.03;;
10523;SDS011;5310;48.638;9.060;2023-05-29T01:07:36;1.10;;;1.10;;
10523;SDS011;5310;48.638;9.060;2023-05-29T01:10:03;1.20;;;1.20;;
10523;SDS011;5310;48.638;9.060;2023-05-29T01:25:42;1.17;;;1.17;;
10523;SDS011;5310;48.638;9.060;2023-05-29T01:28:13;1.20;;;1.20;;
10523;SDS011;5310;48.638;9.060;2023-05-29T01:30:41;1.20;;;1.20;;
10523;SDS011;5310;48.638;9.060;2023-05-29T01:33:08;1.20;;;1.20;;
10523;SDS011;5310;48.638;9.060;2023-05-29T01:35:34;1.20;;;1.20;;
10523;SDS011;5310;48.638;9.060;2023-05-29T01:38:00;1.20;;;1.20;;
10523;SDS011;5310;48.638;9.060;2023-05-29T01:40:26;1.10;;;1.10;;
10523;SDS011;5310;48.638;9.060;2023-05-29T01:42:52;1.43;;;1.33;;
10523;SDS011;5310;48.638;9.060;2023-05-29T01:45:18;1.20;;;1.20;;
10523;SDS011;5310;48.638;9.060;2023-05-29T01:47:44;1.17;;;1.17;;
10523;SDS011;5310;48.638;9.060;2023-05-29T01:50:11;1.60;;;1.50;;
10523;SDS011;5310;48.638;9.060;2023-05-29T01:52:38;1.50;;;1.40;;
10523;SDS011;5310;48.638;9.060;2023-05-29T01:55:05;1.47;;;1.37;;
10523;SDS011;5310;48.638;9.060;2023-05-29T01:57:31;1.50;;;1.40;;
10523;SDS011;5310;48.638;9.060;2023-05-29T01:59:57;1.70;;;1.60;;
10523;SDS011;5310;48.638;9.060;2023-05-29T02:02:23;1.43;;;1.40;;
10523;SDS011;5310;48.638;9.060;2023-05-29T02:04:49;1.40;;;1.30;;
10523;SDS011;5310;48.638;9.060;2023-05-29T02:07:16;1.37;;;1.30;;
10523;SDS011;5310;48.638;9.060;2023-05-29T02:09:42;1.50;;;1.40;;
10523;SDS011;5310;48.638;9.060;2023-05-29T02:12:08;1.50;;;1.40;;
10523;SDS011;5310;48.638;9.060;2023-05-29T02:14:34;1.40;;;1.30;;
10523;SDS011;5310;48.638;9.060;2023-05-29T02:17:01;1.50;;;1.40;;
10523;SDS011;5310;48.638;9.060;2023-05-29T02:19:27;1.40;;;1.30;;
10523;SDS011;5310;48.638;9.060;2023-05-29T02:21:53;1.40;;;1.30;;
10523;SDS011;5310;48.638;9.060;2023-05-29T02:24:19;1.40;;;1.30;;
10523;SDS011;5310;48.638;9.060;2023-05-29T02:26:47;1.60;;;1.50;;
10523;SDS011;5310;48.638;9.060;2023-05-29T02:29:15;1.60;;;1.50;;
10523;SDS011;5310;48.638;9.060;2023-05-29T02:31:41;1.60;;;1.50;;
10523;SDS011;5310;48.638;9.060;2023-05-29T02:34:07;1.60;;;1.50;;
10523;SDS011;5310;48.638;9.060;2023-05-29T02:36:32;1.67;;;1.57;;
10523;SDS011;5310;48.638;9.060;2023-05-29T02:39:02;1.60;;;1.50;;
10523;SDS011;5310;48.638;9.060;2023-05-29T02:41:28;1.50;;;1.40;;
10523;SDS011;5310;48.638;9.060;2023-05-29T02:43:54;1.40;;;1.30;;
10523;SDS011;5310;48.638;9.060;2023-05-29T02:46:20;1.50;;;1.40;;
10523;SDS011;5310;48.638;9.060;2023-05-29T02:48:46;1.20;;;1.20;;
10523;SDS011;5310;48.638;9.060;2023-05-29T02:51:13;1.40;;;1.30;;
10523;SDS011;5310;48.638;9.060;2023-05-29T02:53:39;1.60;;;1.50;;
10523;SDS011;5310;48.638;9.060;2023-05-29T02:56:05;1.27;;;1.27;;
10523;SDS011;5310;48.638;9.060;2023-05-29T02:58:32;1.50;;;1.40;;
10523;SDS011;5310;48.638;9.060;2023-05-29T03:00:58;1.47;;;1.37;;
10523;SDS011;5310;48.638;9.060;2023-05-29T03:03:25;1.37;;;1.30;;
10523;SDS011;5310;48.638;9.060;2023-05-29T03:05:51;1.23;;;1.23;;
10523;SDS011;5310;48.638;9.060;2023-05-29T03:08:17;1.37;;;1.33;;
10523;SDS011;5310;48.638;9.060;2023-05-29T03:10:43;1.50;;;1.40;;
10523;SDS011;5310;48.638;9.060;2023-05-29T03:13:10;1.47;;;1.37;;
10523;SDS011;5310;48.638;9.060;2023-05-29T03:15:36;1.90;;;1.50;;
10523;SDS011;5310;48.638;9.060;2023-05-29T03:18:02;1.47;;;1.37;;
10523;SDS011;5310;48.638;9.060;2023-05-29T03:20:27;1.37;;;1.30;;
10523;SDS011;5310;48.638;9.060;2023-05-29T03:22:53;1.50;;;1.40;;
10523;SDS011;5310;48.638;9.060;2023-05-29T03:25:20;1.37;;;1.37;;
10523;SDS011;5310;48.638;9.060;2023-05-29T03:27:46;1.40;;;1.30;;
10523;SDS011;5310;48.638;9.060;2023-05-29T03:30:11;1.53;;;1.43;;
10523;SDS011;5310;48.638;9.060;2023-05-29T03:32:37;1.30;;;1.30;;
10523;SDS011;5310;48.638;9.060;2023-05-29T03:35:03;1.20;;;1.20;;
10523;SDS011;5310;48.638;9.060;2023-05-29T03:37:30;1.50;;;1.40;;
10523;SDS011;5310;48.638;9.060;2023-05-29T03:39:56;1.23;;;1.23;;
10523;SDS011;5310;48.638;9.060;2023-05-29T03:42:22;1.57;;;1.47;;
10523;SDS011;5310;48.638;9.060;2023-05-29T03:44:47;1.90;;;1.70;;
10523;SDS011;5310;48.638;9.060;2023-05-29T03:47:13;1.63;;;1.53;;
10523;SDS011;5310;48.638;9.060;2023-05-29T03:49:39;1.40;;;1.30;;
10523;SDS011;5310;48.638;9.060;2023-05-29T03:52:05;1.50;;;1.40;;
10523;SDS011;5310;48.638;9.060;2023-05-29T03:54:32;1.50;;;1.40;;
10523;SDS011;5310;48.638;9.060;2023-05-29T03:56:58;1.63;;;1.53;;
10523;SDS011;5310;48.638;9.060;2023-05-29T03:59:24;1.50;;;1.40;;
10523;SDS011;5310;48.638;9.060;2023-05-29T04:01:50;1.50;;;1.40;;
10523;SDS011;5310;48.638;9.060;2023-05-29T04:04:16;1.40;;;1.30;;
10523;SDS011;5310;48.638;9.060;2023-05-29T04:06:42;1.50;;;1.40;;
10523;SDS011;5310;48.638;9.060;2023-05-29T04:09:07;1.40;;;1.30;;
10523;SDS011;5310;48.638;9.060;2023-05-29T04:11:33;1.37;;;1.30;;
10523;SDS011;5310;48.638;9.060;2023-05-29T04:14:00;1.33;;;1.23;;
10523;SDS011;5310;48.638;9.060;2023-05-29T04:16:26;1.20;;;1.17;;
10523;SDS011;5310;48.638;9.060;2023-05-29T04:18:53;1.37;;;1.30;;
10523;SDS011;5310;48.638;9.060;2023-05-29T04:21:19;1.33;;;1.27;;
10523;SDS011;5310;48.638;9.060;2023-05-29T04:23:45;1.40;;;1.30;;
10523;SDS011;5310;48.638;9.060;2023-05-29T04:26:11;1.60;;;1.50;;
10523;SDS011;5310;48.638;9.060;2023-05-29T04:28:37;1.20;;;1.20;;
10523;SDS011;5310;48.638;9.060;2023-05-29T04:31:04;1.47;;;1.37;;
10523;SDS011;5310;48.638;9.060;2023-05-29T04:33:31;1.40;;;1.30;;
10523;SDS011;5310;48.638;9.060;2023-05-29T04:35:57;1.23;;;1.23;;
10523;SDS011;5310;48.638;9.060;2023-05-29T04:38:26;1.50;;;1.40;;
10523;SDS011;5310;48.638;9.060;2023-05-29T04:40:52;1.50;;;1.40;;
10523;SDS011;5310;48.638;9.060;2023-05-29T04:43:22;1.50;;;1.40;;
10523;SDS011;5310;48.638;9.060;2023-05-29T04:45:51;1.27;;;1.23;;
10523;SDS011;5310;48.638;9.060;2023-05-29T04:48:17;1.00;;;1.00;;
10523;SDS011;5310;48.638;9.060;2023-05-29T04:50:43;1.37;;;1.30;;
10523;SDS011;5310;48.638;9.060;2023-05-29T04:53:09;1.60;;;1.50;;
10523;SDS011;5310;48.638;9.060;2023-05-29T04:55:35;1.50;;;1.40;;
10523;SDS011;5310;48.638;9.060;2023-05-29T04:58:01;1.23;;;1.20;;
10523;SDS011;5310;48.638;9.060;2023-05-29T05:00:27;1.60;;;1.50;;
10523;SDS011;5310;48.638;9.060;2023-05-29T05:02:53;1.23;;;1.23;;
10523;SDS011;5310;48.638;9.060;2023-05-29T05:05:20;1.10;;;1.00;;
10523;SDS011;5310;48.638;9.060;2023-05-29T05:07:46;1.63;;;1.53;;
10523;SDS011;5310;48.638;9.060;2023-05-29T05:10:12;1.40;;;1.30;;
10523;SDS011;5310;48.638;9.060;2023-05-29T05:12:38;1.40;;;1.30;;
10523;SDS011;5310;48.638;9.060;2023-05-29T05:15:05;1.40;;;1.30;;
10523;SDS011;5310;48.638;9.060;2023-05-29T05:17:31;1.73;;;1.57;;
10523;SDS011;5310;48.638;9.060;2023-05-29T05:19:58;1.30;;;1.20;;
10523;SDS011;5310;48.638;9.060;2023-05-29T05:22:24;1.40;;;1.30;;
10523;SDS011;5310;48.638;9.060;2023-05-29T05:24:50;1.40;;;1.30;;
10523;SDS011;5310;48.638;9.060;2023-05-29T05:27:18;1.90;;;1.70;;
10523;SDS011;5310;48.638;9.060;2023-05-29T05:29:43;1.40;;;1.30;;
10523;SDS011;5310;48.638;9.060;2023-05-29T05:32:09;1.40;;;1.30;;
10523;SDS011;5310;48.638;9.060;2023-05-29T05:34:36;1.50;;;1.40;;
10523;SDS011;5310;48.638;9.060;2023-05-29T05:37:02;1.40;;;1.30;;
10523;SDS011;5310;48.638;9.060;2023-05-29T05:39:28;1.53;;;1.43;;
10523;SDS011;5310;48.638;9.060;2023-05-29T05:41:54;1.13;;;1.13;;
10523;SDS011;5310;48.638;9.060;2023-05-29T05:44:20;0.90;;;0.90;;
10523;SDS011;5310;48.638;9.060;2023-05-29T05:46:46;1.10;;;1.10;;
10523;SDS011;5310;48.638;9.060;2023-05-29T05:49:12;1.10;;;1.10;;
10523;SDS011;5310;48.638;9.060;2023-05-29T05:51:38;0.90;;;0.90;;
10523;SDS011;5310;48.638;9.060;2023-05-29T05:54:04;1.10;;;1.10;;
10523;SDS011;5310;48.638;9.060;2023-05-29T05:56:30;1.10;;;1.10;;
10523;SDS011;5310;48.638;9.060;2023-05-29T05:58:56;1.00;;;1.00;;
10523;SDS011;5310;48.638;9.060;2023-05-29T06:01:22;0.73;;;0.73;;
10523;SDS011;5310;48.638;9.060;2023-05-29T06:03:48;0.90;;;0.90;;
10523;SDS011;5310;48.638;9.060;2023-05-29T06:06:14;0.70;;;0.70;;
10523;SDS011;5310;48.638;9.060;2023-05-29T06:08:42;0.67;;;0.67;;
10523;SDS011;5310;48.638;9.060;2023-05-29T06:11:08;0.87;;;0.87;;
10523;SDS011;5310;48.638;9.060;2023-05-29T06:13:34;0.70;;;0.70;;
10523;SDS011;5310;48.638;9.060;2023-05-29T06:16:00;0.83;;;0.83;;
10523;SDS011;5310;48.638;9.060;2023-05-29T06:18:26;0.90;;;0.90;;
10523;SDS011;5310;48.638;9.060;2023-05-29T06:20:52;1.00;;;1.00;;
10523;SDS011;5310;48.638;9.060;2023-05-29T06:23:18;0.80;;;0.80;;
10523;SDS011;5310;48.638;9.060;2023-05-29T06:25:44;0.73;;;0.73;;
10523;SDS011;5310;48.638;9.060;2023-05-29T06:28:10;1.30;;;1.20;;
10523;SDS011;5310;48.638;9.060;2023-05-29T06:30:36;0.97;;;0.97;;
10523;SDS011;5310;48.638;9.060;2023-05-29T06:33:04;1.00;;;1.00;;
10523;SDS011;5310;48.638;9.060;2023-05-29T06:35:31;1.03;;;1.03;;
10523;SDS011;5310;48.638;9.060;2023-05-29T06:37:57;1.00;;;1.00;;
10523;SDS011;5310;48.638;9.060;2023-05-29T06:40:23;1.00;;;1.00;;
10523;SDS011;5310;48.638;9.060;2023-05-29T06:42:48;1.10;;;1.10;;
10523;SDS011;5310;48.638;9.060;2023-05-29T06:45:14;1.30;;;1.20;;
10523;SDS011;5310;48.638;9.060;2023-05-29T06:47:41;1.10;;;1.10;;
10523;SDS011;5310;48.638;9.060;2023-05-29T06:50:07;1.03;;;1.03;;
10523;SDS011;5310;48.638;9.060;2023-05-29T06:52:33;1.10;;;1.10;;
10523;SDS011;5310;48.638;9.060;2023-05-29T06:54:59;1.07;;;1.07;;
10523;SDS011;5310;48.638;9.060;2023-05-29T06:57:26;1.10;;;1.10;;
10523;SDS011;5310;48.638;9.060;2023-05-29T06:59:52;1.00;;;1.00;;
10523;SDS011;5310;48.638;9.060;2023-05-29T07:02:18;0.80;;;0.80;;
10523;SDS011;5310;48.638;9.060;2023-05-29T07:04:44;1.00;;;1.00;;
10523;SDS011;5310;48.638;9.060;2023-05-29T07:07:10;1.10;;;1.10;;
10523;SDS011;5310;48.638;9.060;2023-05-29T07:09:36;0.83;;;0.83;;
10523;SDS011;5310;48.638;9.060;2023-05-29T07:12:04;0.80;;;0.80;;
10523;SDS011;5310;48.638;9.060;2023-05-29T07:14:30;0.93;;;0.93;;
10523;SDS011;5310;48.638;9.060;2023-05-29T07:16:56;0.90;;;0.90;;
10523;SDS011;5310;48.638;9.060;2023-05-29T07:19:22;0.90;;;0.90;;
10523;SDS011;5310;48.638;9.060;2023-05-29T07:21:48;0.60;;;0.60;;
10523;SDS011;5310;48.638;9.060;2023-05-29T07:24:13;0.90;;;0.90;;
10523;SDS011;5310;48.638;9.060;2023-05-29T07:26:40;0.90;;;0.90;;
10523;SDS011;5310;48.638;9.060;2023-05-29T07:29:05;0.70;;;0.70;;
10523;SDS011;5310;48.638;9.060;2023-05-29T07:31:31;0.80;;;0.80;;
10523;SDS011;5310;48.638;9.060;2023-05-29T07:33:57;0.70;;;0.70;;
10523;SDS011;5310;48.638;9.060;2023-05-29T07:36:28;0.80;;;0.80;;
10523;SDS011;5310;48.638;9.060;2023-05-29T07:38:55;1.07;;;1.07;;
10523;SDS011;5310;48.638;9.060;2023-05-29T07:41:23;1.40;;;1.30;;
10523;SDS011;5310;48.638;9.060;2023-05-29T07:43:49;1.20;;;1.10;;
10523;SDS011;5310;48.638;9.060;2023-05-29T07:46:17;1.40;;;1.30;;
10523;SDS011;5310;48.638;9.060;2023-05-29T07:48:45;1.17;;;1.10;;
10523;SDS011;5310;48.638;9.060;2023-05-29T07:51:12;1.00;;;1.00;;
10523;SDS011;5310;48.638;9.060;2023-05-29T07:53:38;1.30;;;1.20;;
10523;SDS011;5310;48.638;9.060;2023-05-29T07:56:03;1.05;;;1.05;;
10523;SDS011;5310;48.638;9.060;2023-05-29T07:58:29;1.40;;;1.30;;
10523;SDS011;5310;48.638;9.060;2023-05-29T08:00:55;1.30;;;1.20;;
10523;SDS011;5310;48.638;9.060;2023-05-29T08:03:21;1.17;;;1.10;;
10523;SDS011;5310;48.638;9.060;2023-05-29T08:05:47;1.30;;;1.20;;
10523;SDS011;5310;48.638;9.060;2023-05-29T08:08:13;1.52;;;1.30;;
10523;SDS011;5310;48.638;9.060;2023-05-29T08:10:40;1.45;;;1.35;;
10523;SDS011;5310;48.638;9.060;2023-05-29T08:13:06;1.30;;;1.20;;
10523;SDS011;5310;48.638;9.060;2023-05-29T08:15:32;1.30;;;1.20;;
10523;SDS011;5310;48.638;9.060;2023-05-29T08:17:58;1.30;;;1.20;;
10523;SDS011;5310;48.638;9.060;2023-05-29T08:20:25;1.50;;;1.40;;
10523;SDS011;5310;48.638;9.060;2023-05-29T08:22:51;1.33;;;1.23;;
10523;SDS011;5310;48.638;9.060;2023-05-29T08:25:17;1.42;;;1.33;;
10523;SDS011;5310;48.638;9.060;2023-05-29T08:27:43;1.45;;;1.35;;
10523;SDS011;5310;48.638;9.060;2023-05-29T08:30:09;1.48;;;1.27;;
10523;SDS011;5310;48.638;9.060;2023-05-29T08:32:35;1.55;;;1.42;;
10523;SDS011;5310;48.638;9.060;2023-05-29T08:35:01;1.40;;;1.27;;
10523;SDS011;5310;48.638;9.060;2023-05-29T08:37:29;1.73;;;1.50;;
10523;SDS011;5310;48.638;9.060;2023-05-29T08:39:55;1.50;;;1.33;;
10523;SDS011;5310;48.638;9.060;2023-05-29T08:42:21;1.30;;;1.20;;
10523;SDS011;5310;48.638;9.060;2023-05-29T08:44:55;1.20;;;1.10;;
10523;SDS011;5310;48.638;9.060;2023-05-29T08:47:26;1.25;;;1.15;;
10523;SDS011;5310;48.638;9.060;2023-05-29T08:49:53;1.40;;;1.30;;
10523;SDS011;5310;48.638;9.060;2023-05-29T08:52:21;1.35;;;1.25;;
10523;SDS011;5310;48.638;9.060;2023-05-29T08:54:47;1.45;;;1.35;;
10523;SDS011;5310;48.638;9.060;2023-05-29T08:57:13;1.70;;;1.60;;
10523;SDS011;5310;48.638;9.060;2023-05-29T08:59:42;1.67;;;1.50;;
10523;SDS011;5310;48.638;9.060;2023-05-29T09:02:09;1.30;;;1.17;;
10523;SDS011;5310;48.638;9.060;2023-05-29T09:04:36;1.33;;;1.23;;
10523;SDS011;5310;48.638;9.060;2023-05-29T09:07:02;1.13;;;1.02;;
10523;SDS011;5310;48.638;9.060;2023-05-29T09:09:29;1.40;;;1.30;;
10523;SDS011;5310;48.638;9.060;2023-05-29T09:11:56;1.40;;;1.30;;
10523;SDS011;5310;48.638;9.060;2023-05-29T09:14:39;1.60;;;1.45;;
10523;SDS011;5310;48.638;9.060;2023-05-29T09:17:06;1.50;;;1.40;;
10523;SDS011;5310;48.638;9.060;2023-05-29T09:19:33;1.30;;;1.20;;
10523;SDS011;5310;48.638;9.060;2023-05-29T09:22:00;1.20;;;1.10;;
10523;SDS011;5310;48.638;9.060;2023-05-29T09:24:28;1.25;;;1.15;;
10523;SDS011;5310;48.638;9.060;2023-05-29T09:26:55;1.50;;;1.40;;
10523;SDS011;5310;48.638;9.060;2023-05-29T09:29:21;1.58;;;1.35;;
10523;SDS011;5310;48.638;9.060;2023-05-29T09:31:47;1.35;;;1.25;;
10523;SDS011;5310;48.638;9.060;2023-05-29T09:34:13;1.58;;;1.30;;
10523;SDS011;5310;48.638;9.060;2023-05-29T09:36:40;1.80;;;1.50;;
10523;SDS011;5310;48.638;9.060;2023-05-29T09:39:06;1.38;;;1.20;;
10523;SDS011;5310;48.638;9.060;2023-05-29T09:41:41;1.65;;;1.35;;
10523;SDS011;5310;48.638;9.060;2023-05-29T09:44:07;1.13;;;1.02;;
10523;SDS011;5310;48.638;9.060;2023-05-29T09:46:35;1.35;;;1.23;;
10523;SDS011;5310;48.638;9.060;2023-05-29T09:49:02;1.38;;;1.25;;
10523;SDS011;5310;48.638;9.060;2023-05-29T09:51:28;0.43;;;0.43;;
10523;SDS011;5310;48.638;9.060;2023-05-29T09:53:55;0.60;;;0.60;;
10523;SDS011;5310;48.638;9.060;2023-05-29T09:56:26;0.47;;;0.47;;
10523;SDS011;5310;48.638;9.060;2023-05-29T09:58:53;0.40;;;0.40;;
10523;SDS011;5310;48.638;9.060;2023-05-29T10:01:22;0.50;;;0.50;;
10523;SDS011;5310;48.638;9.060;2023-05-29T10:03:49;0.70;;;0.70;;
10523;SDS011;5310;48.638;9.060;2023-05-29T10:06:16;0.77;;;0.65;;
10523;SDS011;5310;48.638;9.060;2023-05-29T10:08:45;0.70;;;0.70;;
10523;SDS011;5310;48.638;9.060;2023-05-29T10:11:17;0.50;;;0.50;;
10523;SDS011;5310;48.638;9.060;2023-05-29T10:13:49;0.50;;;0.50;;
10523;SDS011;5310;48.638;9.060;2023-05-29T10:16:19;0.50;;;0.50;;
10523;SDS011;5310;48.638;9.060;2023-05-29T10:18:47;0.60;;;0.60;;
10523;SDS011;5310;48.638;9.060;2023-05-29T10:21:19;0.40;;;0.40;;
10523;SDS011;5310;48.638;9.060;2023-05-29T10:23:50;0.30;;;0.30;;
10523;SDS011;5310;48.638;9.060;2023-05-29T10:26:24;0.40;;;0.40;;
10523;SDS011;5310;48.638;9.060;2023-05-29T10:29:12;0.40;;;0.40;;
10523;SDS011;5310;48.638;9.060;2023-05-29T10:37:04;0.30;;;0.30;;
10523;SDS011;5310;48.638;9.060;2023-05-29T10:39:41;0.40;;;0.40;;
10523;SDS011;5310;48.638;9.060;2023-05-29T10:42:39;0.40;;;0.40;;
10523;SDS011;5310;48.638;9.060;2023-05-29T10:47:54;0.30;;;0.30;;
10523;SDS011;5310;48.638;9.060;2023-05-29T10:50:38;0.38;;;0.38;;
10523;SDS011;5310;48.638;9.060;2023-05-29T10:53:08;0.30;;;0.30;;
10523;SDS011;5310;48.638;9.060;2023-05-29T10:55:41;0.40;;;0.40;;
10523;SDS011;5310;48.638;9.060;2023-05-29T10:58:08;0.50;;;0.50;;
10523;SDS011;5310;48.638;9.060;2023-05-29T11:00:40;0.40;;;0.40;;
10523;SDS011;5310;48.638;9.060;2023-05-29T11:03:11;0.40;;;0.40;;
10523;SDS011;5310;48.638;9.060;2023-05-29T11:05:59;0.40;;;0.40;;
10523;SDS011;5310;48.638;9.060;2023-05-29T11:08:33;0.50;;;0.50;;
10523;SDS011;5310;48.638;9.060;2023-05-29T11:11:12;0.30;;;0.30;;
10523;SDS011;5310;48.638;9.060;2023-05-29T11:13:38;0.50;;;0.50;;
10523;SDS011;5310;48.638;9.060;2023-05-29T11:16:51;0.52;;;0.52;;
10523;SDS011;5310;48.638;9.060;2023-05-29T11:18:54;0.30;;;0.30;;
10523;SDS011;5310;48.638;9.060;2023-05-29T11:24:04;0.40;;;0.40;;
10523;SDS011;5310;48.638;9.060;2023-05-29T11:26:31;0.30;;;0.30;;
10523;SDS011;5310;48.638;9.060;2023-05-29T11:29:02;0.40;;;0.40;;
10523;SDS011;5310;48.638;9.060;2023-05-29T11:31:35;0.40;;;0.40;;
10523;SDS011;5310;48.638;9.060;2023-05-29T11:34:03;0.30;;;0.30;;
10523;SDS011;5310;48.638;9.060;2023-05-29T11:36:34;0.30;;;0.30;;
10523;SDS011;5310;48.638;9.060;2023-05-29T11:39:00;0.73;;;0.45;;
10523;SDS011;5310;48.638;9.060;2023-05-29T11:41:27;0.40;;;0.40;;
10523;SDS011;5310;48.638;9.060;2023-05-29T11:43:59;0.30;;;0.30;;
10523;SDS011;5310;48.638;9.060;2023-05-29T11:46:27;0.30;;;0.30;;
10523;SDS011;5310;48.638;9.060;2023-05-29T11:48:56;0.43;;;0.40;;
10523;SDS011;5310;48.638;9.060;2023-05-29T11:51:22;1.35;;;0.60;;
10523;SDS011;5310;48.638;9.060;2023-05-29T11:53:48;0.50;;;0.50;;
10523;SDS011;5310;48.638;9.060;2023-05-29T11:56:17;0.80;;;0.73;;
10523;SDS011;5310;48.638;9.060;2023-05-29T11:58:43;0.50;;;0.50;;
10523;SDS011;5310;48.638;9.060;2023-05-29T12:01:10;0.30;;;0.30;;
10523;SDS011;5310;48.638;9.060;2023-05-29T12:03:42;0.40;;;0.40;;
10523;SDS011;5310;48.638;9.060;2023-05-29T12:06:09;0.40;;;0.40;;
10523;SDS011;5310;48.638;9.060;2023-05-29T12:08:37;0.30;;;0.30;;
10523;SDS011;5310;48.638;9.060;2023-05-29T12:11:03;0.50;;;0.50;;
10523;SDS011;5310;48.638;9.060;2023-05-29T12:13:30;0.43;;;0.43;;
10523;SDS011;5310;48.638;9.060;2023-05-29T12:15:56;0.35;;;0.35;;
10523;SDS011;5310;48.638;9.060;2023-05-29T12:18:25;0.35;;;0.35;;
10523;SDS011;5310;48.638;9.060;2023-05-29T12:20:56;0.30;;;0.30;;
10523;SDS011;5310;48.638;9.060;2023-05-29T12:23:23;0.30;;;0.30;;
10523;SDS011;5310;48.638;9.060;2023-05-29T12:25:50;0.30;;;0.30;;
10523;SDS011;5310;48.638;9.060;2023-05-29T12:28:17;0.50;;;0.50;;
10523;SDS011;5310;48.638;9.060;2023-05-29T12:30:46;0.30;;;0.30;;
10523;SDS011;5310;48.638;9.060;2023-05-29T12:33:24;0.60;;;0.60;;
10523;SDS011;5310;48.638;9.060;2023-05-29T12:35:54;0.43;;;0.43;;
10523;SDS011;5310;48.638;9.060;2023-05-29T12:38:26;0.38;;;0.38;;
10523;SDS011;5310;48.638;9.060;2023-05-29T12:40:52;0.30;;;0.30;;
10523;SDS011;5310;48.638;9.060;2023-05-29T12:43:18;0.40;;;0.40;;
10523;SDS011;5310;48.638;9.060;2023-05-29T12:45:44;0.45;;;0.45;;
10523;SDS011;5310;48.638;9.060;2023-05-29T12:48:10;0.57;;;0.55;;
10523;SDS011;5310;48.638;9.060;2023-05-29T12:50:39;0.50;;;0.50;;
10523;SDS011;5310;48.638;9.060;2023-05-29T12:53:06;0.40;;;0.40;;
10523;SDS011;5310;48.638;9.060;2023-05-29T12:55:34;0.30;;;0.30;;
10523;SDS011;5310;48.638;9.060;2023-05-29T12:58:04;0.43;;;0.43;;
10523;SDS011;5310;48.638;9.060;2023-05-29T13:00:31;0.40;;;0.40;;
10523;SDS011;5310;48.638;9.060;2023-05-29T13:02:58;0.38;;;0.38;;
10523;SDS011;5310;48.638;9.060;2023-05-29T13:05:24;0.43;;;0.43;;
10523;SDS011;5310;48.638;9.060;2023-05-29T13:07:51;1.30;;;0.70;;
10523;SDS011;5310;48.638;9.060;2023-05-29T13:10:17;0.40;;;0.40;;
10523;SDS011;5310;48.638;9.060;2023-05-29T13:12:43;0.50;;;0.50;;
10523;SDS011;5310;48.638;9.060;2023-05-29T13:15:10;0.50;;;0.50;;
10523;SDS011;5310;48.638;9.060;2023-05-29T13:17:37;0.50;;;0.50;;
10523;SDS011;5310;48.638;9.060;2023-05-29T13:20:07;0.35;;;0.35;;
10523;SDS011;5310;48.638;9.060;2023-05-29T13:22:34;0.45;;;0.45;;
10523;SDS011;5310;48.638;9.060;2023-05-29T13:25:00;0.40;;;0.40;;
10523;SDS011;5310;48.638;9.060;2023-05-29T13:27:26;0.40;;;0.40;;
10523;SDS011;5310;48.638;9.060;2023-05-29T13:29:53;0.47;;;0.47;;
10523;SDS011;5310;48.638;9.060;2023-05-29T13:32:19;0.47;;;0.47;;
10523;SDS011;5310;48.638;9.060;2023-05-29T13:34:45;0.50;;;0.50;;
10523;SDS011;5310;48.638;9.060;2023-05-29T13:37:11;1.35;;;1.25;;
10523;SDS011;5310;48.638;9.060;2023-05-29T13:39:37;1.38;;;1.27;;
10523;SDS011;5310;48.638;9.060;2023-05-29T13:42:03;1.30;;;1.20;;
10523;SDS011;5310;48.638;9.060;2023-05-29T13:44:30;1.40;;;1.30;;
10523;SDS011;5310;48.638;9.060;2023-05-29T13:46:56;1.30;;;1.20;;
10523;SDS011;5310;48.638;9.060;2023-05-29T13:49:22;1.30;;;1.20;;
10523;SDS011;5310;48.638;9.060;2023-05-29T13:51:48;1.17;;;1.08;;
10523;SDS011;5310;48.638;9.060;2023-05-29T13:54:15;1.30;;;1.20;;
10523;SDS011;5310;48.638;9.060;2023-05-29T13:56:42;1.25;;;1.15;;
10523;SDS011;5310;48.638;9.060;2023-05-29T13:59:08;1.10;;;1.10;;
10523;SDS011;5310;48.638;9.060;2023-05-29T14:01:34;1.30;;;1.20;;
10523;SDS011;5310;48.638;9.060;2023-05-29T14:04:00;1.23;;;1.13;;
10523;SDS011;5310;48.638;9.060;2023-05-29T14:06:26;1.48;;;1.38;;
10523;SDS011;5310;48.638;9.060;2023-05-29T14:08:52;1.17;;;1.08;;
10523;SDS011;5310;48.638;9.060;2023-05-29T14:11:18;1.35;;;1.25;;
10523;SDS011;5310;48.638;9.060;2023-05-29T14:13:44;1.23;;;1.13;;
10523;SDS011;5310;48.638;9.060;2023-05-29T14:16:10;1.30;;;1.20;;
10523;SDS011;5310;48.638;9.060;2023-05-29T14:18:36;1.13;;;1.10;;
10523;SDS011;5310;48.638;9.060;2023-05-29T14:21:02;1.40;;;1.30;;
10523;SDS011;5310;48.638;9.060;2023-05-29T14:23:28;1.52;;;1.42;;
10523;SDS011;5310;48.638;9.060;2023-05-29T14:25:54;1.40;;;1.30;;
10523;SDS011;5310;48.638;9.060;2023-05-29T14:28:20;1.40;;;1.30;;
10523;SDS011;5310;48.638;9.060;2023-05-29T14:30:46;1.38;;;1.27;;
10523;SDS011;5310;48.638;9.060;2023-05-29T14:33:12;1.30;;;1.20;;
10523;SDS011;5310;48.638;9.060;2023-05-29T14:35:38;1.42;;;1.33;;
10523;SDS011;5310;48.638;9.060;2023-05-29T14:38:03;1.08;;;1.08;;
10523;SDS011;5310;48.638;9.060;2023-05-29T14:40:29;1.50;;;1.40;;
10523;SDS011;5310;48.638;9.060;2023-05-29T14:42:56;1.20;;;1.10;;
10523;SDS011;5310;48.638;9.060;2023-05-29T14:45:22;1.30;;;1.20;;
10523;SDS011;5310;48.638;9.060;2023-05-29T14:47:48;1.40;;;1.30;;
10523;SDS011;5310;48.638;9.060;2023-05-29T14:50:14;1.40;;;1.30;;
10523;SDS011;5310;48.638;9.060;2023-05-29T14:52:40;1.42;;;1.33;;
10523;SDS011;5310;48.638;9.060;2023-05-29T14:55:06;1.30;;;1.20;;
10523;SDS011;5310;48.638;9.060;2023-05-29T14:57:32;1.20;;;1.10;;
10523;SDS011;5310;48.638;9.060;2023-05-29T14:59:59;1.30;;;1.20;;
10523;SDS011;5310;48.638;9.060;2023-05-29T15:02:25;1.30;;;1.20;;
10523;SDS011;5310;48.638;9.060;2023-05-29T15:04:51;1.42;;;1.33;;
10523;SDS011;5310;48.638;9.060;2023-05-29T15:07:17;1.20;;;1.10;;
10523;SDS011;5310;48.638;9.060;2023-05-29T15:09:43;1.30;;;1.20;;
10523;SDS011;5310;48.638;9.060;2023-05-29T15:12:09;1.13;;;1.02;;
10523;SDS011;5310;48.638;9.060;2023-05-29T15:14:35;1.00;;;1.00;;
10523;SDS011;5310;48.638;9.060;2023-05-29T15:17:02;1.63;;;1.50;;
10523;SDS011;5310;48.638;9.060;2023-05-29T15:19:29;1.58;;;1.33;;
10523;SDS011;5310;48.638;9.060;2023-05-29T15:21:55;1.27;;;1.17;;
10523;SDS011;5310;48.638;9.060;2023-05-29T15:24:21;1.02;;;1.02;;